PWSweather.com
Personal Weather Stations
Station Observations
COONRAPIDS
Minneapolis, MN 55433

Minneapolis, MN 55433

Lat: 45.187721, Lon: -93.36828

Elevation: 898

Station Type: Davis Vantage Pro 2

High Low Average
Temperature 14.3°F-9.8°C -7.5°F-21.9°C 4.1°F-15.5°C
Dew Point 7.5°F-13.6°C -16.2°F-26.8°C -3.8°F-19.9°C
Winds 9.2 mph 14.8 kmh Calm Calm 2.0 mph WSW3.2 kmh WSW
Wind Gusts 15.0 mph24.1 kmh -- 4.0 mph6.4 kmh
Humidity 77% 63% 69%
Pressure 30.75 in1041.3 mb 30.04 in1017.3 mb -
Precipitation 0.00 in0.0 mm - -
Hour Temp Dew Point Humidity Winds Wind Gusts Pressure Precip Precip Rate Daily Precip Total
12:00 AM -6.8°F-21.6°C -13.2°F-25.1°C 73% 1.2 mph WSW1.9 kmh WSW 3.5 mph5.6 kmh 30.75 in1041.3 mb - 0.00 in0.0 mm 0.00 in0.0 mm
12:10 AM -6.7°F-21.5°C -13.1°F-25.1°C 73% Calm Calm 2.3 mph3.7 kmh 30.75 in1041.3 mb - 0.00 in0.0 mm 0.00 in0.0 mm
12:20 AM -6.7°F-21.5°C -13.1°F-25.1°C 73% Calm Calm -- 30.74 in1041.0 mb - 0.00 in0.0 mm 0.00 in0.0 mm
12:30 AM -6.7°F-21.5°C -13.1°F-25.1°C 73% Calm Calm 2.3 mph3.7 kmh 30.73 in1040.6 mb - 0.00 in0.0 mm 0.00 in0.0 mm
12:40 AM -6.8°F-21.6°C -13.2°F-25.1°C 73% Calm Calm -- 30.73 in1040.6 mb - 0.00 in0.0 mm 0.00 in0.0 mm
12:50 AM -6.9°F-21.6°C -13.3°F-25.2°C 73% Calm Calm -- 30.72 in1040.3 mb - 0.00 in0.0 mm 0.00 in0.0 mm
01:00 AM -7.0°F-21.7°C -13.4°F-25.2°C 73% Calm Calm -- 30.71 in1040.0 mb - 0.00 in0.0 mm 0.00 in0.0 mm
01:10 AM -7.0°F-21.7°C -13.4°F-25.2°C 73% Calm Calm -- 30.71 in1040.0 mb - 0.00 in0.0 mm 0.00 in0.0 mm
01:20 AM -7.0°F-21.7°C -13.4°F-25.2°C 73% Calm Calm -- 30.70 in1039.6 mb - 0.00 in0.0 mm 0.00 in0.0 mm
01:30 AM -7.1°F-21.7°C -13.5°F-25.3°C 73% Calm Calm -- 30.70 in1039.6 mb - 0.00 in0.0 mm 0.00 in0.0 mm
01:40 AM -7.2°F-21.8°C -13.6°F-25.3°C 73% Calm Calm -- 30.70 in1039.6 mb - 0.00 in0.0 mm 0.00 in0.0 mm
01:50 AM -7.2°F-21.8°C -13.6°F-25.3°C 73% Calm Calm -- 30.69 in1039.3 mb - 0.00 in0.0 mm 0.00 in0.0 mm
02:00 AM -7.1°F-21.7°C -13.2°F-25.1°C 74% Calm Calm -- 30.68 in1038.9 mb - 0.00 in0.0 mm 0.00 in0.0 mm
02:10 AM -6.8°F-21.6°C -12.9°F-24.9°C 74% Calm Calm -- 30.68 in1038.9 mb - 0.00 in0.0 mm 0.00 in0.0 mm
02:20 AM -6.6°F-21.4°C -12.7°F-24.8°C 74% Calm Calm -- 30.68 in1038.9 mb - 0.00 in0.0 mm 0.00 in0.0 mm
02:30 AM -6.6°F-21.4°C -12.7°F-24.8°C 74% Calm Calm -- 30.68 in1038.9 mb - 0.00 in0.0 mm 0.00 in0.0 mm
02:40 AM -6.7°F-21.5°C -12.8°F-24.9°C 74% Calm Calm 1.2 mph1.9 kmh 30.68 in1038.9 mb - 0.00 in0.0 mm 0.00 in0.0 mm
02:50 AM -6.7°F-21.5°C -12.8°F-24.9°C 74% Calm Calm -- 30.67 in1038.6 mb - 0.00 in0.0 mm 0.00 in0.0 mm
03:00 AM -6.8°F-21.6°C -12.9°F-24.9°C 74% Calm Calm -- 30.67 in1038.6 mb - 0.00 in0.0 mm 0.00 in0.0 mm
03:10 AM -6.8°F-21.6°C -12.9°F-24.9°C 74% Calm Calm -- 30.66 in1038.3 mb - 0.00 in0.0 mm 0.00 in0.0 mm
03:20 AM -7.0°F-21.7°C -13.1°F-25.1°C 74% Calm Calm -- 30.66 in1038.3 mb - 0.00 in0.0 mm 0.00 in0.0 mm
03:30 AM -7.1°F-21.7°C -13.2°F-25.1°C 74% Calm Calm -- 30.66 in1038.3 mb - 0.00 in0.0 mm 0.00 in0.0 mm
03:40 AM -7.1°F-21.7°C -13.2°F-25.1°C 74% Calm Calm 1.2 mph1.9 kmh 30.66 in1038.3 mb - 0.00 in0.0 mm 0.00 in0.0 mm
03:50 AM -7.1°F-21.7°C -13.2°F-25.1°C 74% Calm Calm -- 30.65 in1037.9 mb - 0.00 in0.0 mm 0.00 in0.0 mm
04:00 AM -7.1°F-21.7°C -13.5°F-25.3°C 73% Calm Calm 2.3 mph3.7 kmh 30.64 in1037.6 mb - 0.00 in0.0 mm 0.00 in0.0 mm
04:10 AM -7.1°F-21.7°C -13.5°F-25.3°C 73% Calm Calm -- 30.64 in1037.6 mb - 0.00 in0.0 mm 0.00 in0.0 mm
04:20 AM -7.2°F-21.8°C -13.6°F-25.3°C 73% Calm Calm -- 30.63 in1037.3 mb - 0.00 in0.0 mm 0.00 in0.0 mm
04:30 AM -7.4°F-21.9°C -13.8°F-25.4°C 73% Calm Calm -- 30.63 in1037.3 mb - 0.00 in0.0 mm 0.00 in0.0 mm
04:40 AM -7.4°F-21.9°C -13.8°F-25.4°C 73% Calm Calm -- 30.62 in1036.9 mb - 0.00 in0.0 mm 0.00 in0.0 mm
04:50 AM -7.3°F-21.8°C -13.7°F-25.4°C 73% Calm Calm -- 30.61 in1036.6 mb - 0.00 in0.0 mm 0.00 in0.0 mm
05:00 AM -7.1°F-21.7°C -14.0°F-25.6°C 71% 1.2 mph SW1.9 kmh SW 4.6 mph7.4 kmh 30.61 in1036.6 mb - 0.00 in0.0 mm 0.00 in0.0 mm
05:10 AM -6.9°F-21.6°C -14.1°F-25.6°C 70% 1.2 mph SW1.9 kmh SW 3.5 mph5.6 kmh 30.60 in1036.2 mb - 0.00 in0.0 mm 0.00 in0.0 mm
05:20 AM -6.9°F-21.6°C -14.4°F-25.8°C 69% 1.2 mph SW1.9 kmh SW 1.2 mph1.9 kmh 30.59 in1035.9 mb - 0.00 in0.0 mm 0.00 in0.0 mm
05:30 AM -7.0°F-21.7°C -14.8°F-26.0°C 68% Calm Calm -- 30.59 in1035.9 mb - 0.00 in0.0 mm 0.00 in0.0 mm
05:40 AM -7.2°F-21.8°C -15.0°F-26.1°C 68% Calm Calm 2.3 mph3.7 kmh 30.58 in1035.6 mb - 0.00 in0.0 mm 0.00 in0.0 mm
05:50 AM -7.2°F-21.8°C -15.0°F-26.1°C 68% Calm Calm -- 30.58 in1035.6 mb - 0.00 in0.0 mm 0.00 in0.0 mm
06:00 AM -7.3°F-21.8°C -15.4°F-26.3°C 67% 1.2 mph SW1.9 kmh SW 2.3 mph3.7 kmh 30.57 in1035.2 mb - 0.00 in0.0 mm 0.00 in0.0 mm
06:10 AM -7.2°F-21.8°C -15.6°F-26.4°C 66% Calm Calm -- 30.57 in1035.2 mb - 0.00 in0.0 mm 0.00 in0.0 mm
06:20 AM -7.2°F-21.8°C -15.6°F-26.4°C 66% Calm Calm 1.2 mph1.9 kmh 30.57 in1035.2 mb - 0.00 in0.0 mm 0.00 in0.0 mm
06:30 AM -7.3°F-21.8°C -16.0°F-26.7°C 65% Calm Calm 1.2 mph1.9 kmh 30.57 in1035.2 mb - 0.00 in0.0 mm 0.00 in0.0 mm
06:40 AM -7.5°F-21.9°C -16.2°F-26.8°C 65% Calm Calm -- 30.56 in1034.9 mb - 0.00 in0.0 mm 0.00 in0.0 mm
06:50 AM -7.5°F-21.9°C -16.2°F-26.8°C 65% Calm Calm -- 30.55 in1034.5 mb - 0.00 in0.0 mm 0.00 in0.0 mm
07:00 AM -7.3°F-21.8°C -16.0°F-26.7°C 65% Calm Calm -- 30.54 in1034.2 mb - 0.00 in0.0 mm 0.00 in0.0 mm
07:10 AM -7.1°F-21.7°C -15.7°F-26.5°C 65% 1.2 mph WSW1.9 kmh WSW 2.3 mph3.7 kmh 30.53 in1033.9 mb - 0.00 in0.0 mm 0.00 in0.0 mm
07:20 AM -6.6°F-21.4°C -15.9°F-26.6°C 63% Calm Calm 3.5 mph5.6 kmh 30.53 in1033.9 mb - 0.00 in0.0 mm 0.00 in0.0 mm
07:30 AM -6.5°F-21.4°C -15.5°F-26.4°C 64% 1.2 mph SW1.9 kmh SW 3.5 mph5.6 kmh 30.52 in1033.5 mb - 0.00 in0.0 mm 0.00 in0.0 mm
07:40 AM -6.2°F-21.2°C -15.2°F-26.2°C 64% Calm Calm 2.3 mph3.7 kmh 30.51 in1033.2 mb - 0.00 in0.0 mm 0.00 in0.0 mm
07:50 AM -6.2°F-21.2°C -15.2°F-26.2°C 64% Calm Calm -- 30.50 in1032.8 mb - 0.00 in0.0 mm 0.00 in0.0 mm
08:00 AM -6.0°F-21.1°C -15.0°F-26.1°C 64% Calm Calm -- 30.49 in1032.5 mb - 0.00 in0.0 mm 0.00 in0.0 mm
08:10 AM -5.7°F-20.9°C -14.4°F-25.8°C 65% 1.2 mph SW1.9 kmh SW 3.5 mph5.6 kmh 30.48 in1032.2 mb - 0.00 in0.0 mm 0.00 in0.0 mm
08:20 AM -6.0°F-21.1°C -14.7°F-25.9°C 65% 2.3 mph SSW3.7 kmh SSW 3.5 mph5.6 kmh 30.47 in1031.8 mb - 0.00 in0.0 mm 0.00 in0.0 mm
08:30 AM -5.9°F-21.1°C -14.3°F-25.7°C 66% 2.3 mph S3.7 kmh S 3.5 mph5.6 kmh 30.47 in1031.8 mb - 0.00 in0.0 mm 0.00 in0.0 mm
08:40 AM -5.7°F-20.9°C -14.1°F-25.6°C 66% 1.2 mph S1.9 kmh S 4.6 mph7.4 kmh 30.46 in1031.5 mb - 0.00 in0.0 mm 0.00 in0.0 mm
08:50 AM -5.0°F-20.6°C -13.2°F-25.1°C 67% 3.5 mph S5.6 kmh S 4.6 mph7.4 kmh 30.45 in1031.2 mb - 0.00 in0.0 mm 0.00 in0.0 mm
09:00 AM -4.2°F-20.1°C -12.4°F-24.7°C 67% 2.3 mph S3.7 kmh S 4.6 mph7.4 kmh 30.44 in1030.8 mb - 0.00 in0.0 mm 0.00 in0.0 mm
09:10 AM -3.3°F-19.6°C -11.2°F-24.0°C 68% 2.3 mph SW3.7 kmh SW 4.6 mph7.4 kmh 30.43 in1030.5 mb - 0.00 in0.0 mm 0.00 in0.0 mm
09:20 AM -2.2°F-19.0°C -10.2°F-23.4°C 68% 1.2 mph SW1.9 kmh SW 3.5 mph5.6 kmh 30.41 in1029.8 mb - 0.00 in0.0 mm 0.00 in0.0 mm
09:30 AM -1.3°F-18.5°C -9.3°F-22.9°C 68% 2.3 mph S3.7 kmh S 6.9 mph11.1 kmh 30.41 in1029.8 mb - 0.00 in0.0 mm 0.00 in0.0 mm
09:40 AM -0.5°F-18.1°C -8.5°F-22.5°C 68% 1.2 mph SSW1.9 kmh SSW 2.3 mph3.7 kmh 30.41 in1029.8 mb - 0.00 in0.0 mm 0.00 in0.0 mm
09:50 AM -0.4°F-18.0°C -8.7°F-22.6°C 67% 3.5 mph WSW5.6 kmh WSW 6.9 mph11.1 kmh 30.41 in1029.8 mb - 0.00 in0.0 mm 0.00 in0.0 mm
10:00 AM 0.1°F-17.7°C -8.0°F-22.2°C 68% 1.2 mph S1.9 kmh S 2.3 mph3.7 kmh 30.40 in1029.5 mb - 0.00 in0.0 mm 0.00 in0.0 mm
10:10 AM 0.7°F-17.4°C -7.4°F-21.9°C 68% 1.2 mph SW1.9 kmh SW 3.5 mph5.6 kmh 30.40 in1029.5 mb - 0.00 in0.0 mm 0.00 in0.0 mm
10:20 AM 1.5°F-16.9°C -6.7°F-21.5°C 68% 1.2 mph SSW1.9 kmh SSW 4.6 mph7.4 kmh 30.39 in1029.1 mb - 0.00 in0.0 mm 0.00 in0.0 mm
10:30 AM 2.6°F-16.3°C -5.6°F-20.9°C 68% 1.2 mph SW1.9 kmh SW 4.6 mph7.4 kmh 30.38 in1028.8 mb - 0.00 in0.0 mm 0.00 in0.0 mm
10:40 AM 3.3°F-15.9°C -4.9°F-20.5°C 68% 3.5 mph SSW5.6 kmh SSW 5.8 mph9.3 kmh 30.37 in1028.4 mb - 0.00 in0.0 mm 0.00 in0.0 mm
10:50 AM 4.1°F-15.5°C -3.8°F-19.9°C 69% 4.6 mph SW7.4 kmh SW 8.1 mph13.0 kmh 30.36 in1028.1 mb - 0.00 in0.0 mm 0.00 in0.0 mm
11:00 AM 4.9°F-15.1°C -3.0°F-19.4°C 69% 2.3 mph S3.7 kmh S 4.6 mph7.4 kmh 30.34 in1027.4 mb - 0.00 in0.0 mm 0.00 in0.0 mm
11:10 AM 5.9°F-14.5°C -2.4°F-19.1°C 68% 4.6 mph SW7.4 kmh SW 11.5 mph18.5 kmh 30.33 in1027.1 mb - 0.00 in0.0 mm 0.00 in0.0 mm
11:20 AM 7.0°F-13.9°C -1.6°F-18.7°C 67% 9.2 mph WSW14.8 kmh WSW 15.0 mph24.1 kmh 30.32 in1026.8 mb - 0.00 in0.0 mm 0.00 in0.0 mm
11:30 AM 7.4°F-13.7°C -1.3°F-18.5°C 67% 3.5 mph SW5.6 kmh SW 5.8 mph9.3 kmh 30.30 in1026.1 mb - 0.00 in0.0 mm 0.00 in0.0 mm
11:40 AM 8.3°F-13.2°C -1.1°F-18.4°C 65% 2.3 mph SW3.7 kmh SW 5.8 mph9.3 kmh 30.30 in1026.1 mb - 0.00 in0.0 mm 0.00 in0.0 mm
11:50 AM 8.9°F-12.8°C -0.5°F-18.1°C 65% 4.6 mph SSW7.4 kmh SSW 8.1 mph13.0 kmh 30.26 in1024.7 mb - 0.00 in0.0 mm 0.00 in0.0 mm
12:00 PM 9.8°F-12.3°C 0.0°F-17.8°C 64% 4.6 mph SW7.4 kmh SW 8.1 mph13.0 kmh 30.26 in1024.7 mb - 0.00 in0.0 mm 0.00 in0.0 mm
12:10 PM 10.3°F-12.1°C 0.2°F-17.7°C 63% 1.2 mph S1.9 kmh S 3.5 mph5.6 kmh 30.25 in1024.4 mb - 0.00 in0.0 mm 0.00 in0.0 mm
12:20 PM 9.9°F-12.3°C 0.2°F-17.7°C 64% 1.2 mph S1.9 kmh S 4.6 mph7.4 kmh 30.22 in1023.4 mb - 0.00 in0.0 mm 0.00 in0.0 mm
12:30 PM 10.3°F-12.1°C 0.9°F-17.3°C 65% 5.8 mph SSW9.3 kmh SSW 6.9 mph11.1 kmh 30.20 in1022.7 mb - 0.00 in0.0 mm 0.00 in0.0 mm
12:40 PM 11.0°F-11.7°C 1.2°F-17.1°C 64% Calm Calm 3.5 mph5.6 kmh 30.20 in1022.7 mb - 0.00 in0.0 mm 0.00 in0.0 mm
12:50 PM 11.7°F-11.3°C 1.9°F-16.7°C 64% 3.5 mph S5.6 kmh S 6.9 mph11.1 kmh 30.18 in1022.0 mb - 0.00 in0.0 mm 0.00 in0.0 mm
01:00 PM 12.1°F-11.1°C 1.9°F-16.7°C 63% 2.3 mph S3.7 kmh S 5.8 mph9.3 kmh 30.18 in1022.0 mb - 0.00 in0.0 mm 0.00 in0.0 mm
01:10 PM 12.3°F-10.9°C 2.1°F-16.6°C 63% 2.3 mph S3.7 kmh S 3.5 mph5.6 kmh 30.17 in1021.7 mb - 0.00 in0.0 mm 0.00 in0.0 mm
01:20 PM 12.6°F-10.8°C 2.3°F-16.5°C 63% Calm Calm 5.8 mph9.3 kmh 30.17 in1021.7 mb - 0.00 in0.0 mm 0.00 in0.0 mm
01:30 PM 12.5°F-10.8°C 2.3°F-16.5°C 63% 1.2 mph SW1.9 kmh SW 5.8 mph9.3 kmh 30.14 in1020.7 mb - 0.00 in0.0 mm 0.00 in0.0 mm
01:40 PM 12.5°F-10.8°C 2.6°F-16.3°C 64% 3.5 mph SW5.6 kmh SW 6.9 mph11.1 kmh 30.13 in1020.3 mb - 0.00 in0.0 mm 0.00 in0.0 mm
01:50 PM 12.6°F-10.8°C 2.7°F-16.3°C 64% 3.5 mph SW5.6 kmh SW 8.1 mph13.0 kmh 30.12 in1020.0 mb - 0.00 in0.0 mm 0.00 in0.0 mm
02:00 PM 12.8°F-10.7°C 2.9°F-16.2°C 64% 3.5 mph S5.6 kmh S 4.6 mph7.4 kmh 30.11 in1019.6 mb - 0.00 in0.0 mm 0.00 in0.0 mm
02:10 PM 13.2°F-10.4°C 3.3°F-15.9°C 64% 5.8 mph SW9.3 kmh SW 8.1 mph13.0 kmh 30.11 in1019.6 mb - 0.00 in0.0 mm 0.00 in0.0 mm
02:20 PM 13.5°F-10.3°C 3.6°F-15.8°C 64% 3.5 mph SSW5.6 kmh SSW 6.9 mph11.1 kmh 30.10 in1019.3 mb - 0.00 in0.0 mm 0.00 in0.0 mm
02:30 PM 13.4°F-10.3°C 3.5°F-15.8°C 64% 2.3 mph SW3.7 kmh SW 3.5 mph5.6 kmh 30.09 in1019.0 mb - 0.00 in0.0 mm 0.00 in0.0 mm
02:40 PM 13.3°F-10.4°C 3.4°F-15.9°C 64% 2.3 mph SW3.7 kmh SW 4.6 mph7.4 kmh 30.08 in1018.6 mb - 0.00 in0.0 mm 0.00 in0.0 mm
02:50 PM 13.2°F-10.4°C 3.6°F-15.8°C 65% 4.6 mph SW7.4 kmh SW 9.2 mph14.8 kmh 30.08 in1018.6 mb - 0.00 in0.0 mm 0.00 in0.0 mm
03:00 PM 13.2°F-10.4°C 3.6°F-15.8°C 65% 4.6 mph SSW7.4 kmh SSW 4.6 mph7.4 kmh 30.08 in1018.6 mb - 0.00 in0.0 mm 0.00 in0.0 mm
03:10 PM 13.1°F-10.5°C 3.9°F-15.6°C 66% 4.6 mph SW7.4 kmh SW 9.2 mph14.8 kmh 30.09 in1019.0 mb - 0.00 in0.0 mm 0.00 in0.0 mm
03:20 PM 13.2°F-10.4°C 4.0°F-15.6°C 66% 2.3 mph SSW3.7 kmh SSW 4.6 mph7.4 kmh 30.09 in1019.0 mb - 0.00 in0.0 mm 0.00 in0.0 mm
03:30 PM 13.1°F-10.5°C 3.9°F-15.6°C 66% 4.6 mph WSW7.4 kmh WSW 8.1 mph13.0 kmh 30.08 in1018.6 mb - 0.00 in0.0 mm 0.00 in0.0 mm
03:40 PM 13.1°F-10.5°C 4.2°F-15.4°C 67% 3.5 mph SW5.6 kmh SW 4.6 mph7.4 kmh 30.08 in1018.6 mb - 0.00 in0.0 mm 0.00 in0.0 mm
03:50 PM 13.0°F-10.6°C 4.1°F-15.5°C 67% 3.5 mph WSW5.6 kmh WSW 8.1 mph13.0 kmh 30.07 in1018.3 mb - 0.00 in0.0 mm 0.00 in0.0 mm
04:00 PM 12.6°F-10.8°C 5.2°F-14.9°C 72% 3.5 mph SW5.6 kmh SW 4.6 mph7.4 kmh 30.07 in1018.3 mb - 0.00 in0.0 mm 0.00 in0.0 mm
04:10 PM 12.1°F-11.1°C 6.0°F-14.4°C 76% 2.3 mph SW3.7 kmh SW 4.6 mph7.4 kmh 30.07 in1018.3 mb - 0.00 in0.0 mm 0.00 in0.0 mm
04:20 PM 12.1°F-11.1°C 6.3°F-14.3°C 77% 1.2 mph SW1.9 kmh SW 8.1 mph13.0 kmh 30.07 in1018.3 mb - 0.00 in0.0 mm 0.00 in0.0 mm
04:30 PM 12.2°F-11.0°C 6.4°F-14.2°C 77% 1.2 mph SW1.9 kmh SW 3.5 mph5.6 kmh 30.06 in1017.9 mb - 0.00 in0.0 mm 0.00 in0.0 mm
04:40 PM 12.2°F-11.0°C 6.4°F-14.2°C 77% 1.2 mph SW1.9 kmh SW 3.5 mph5.6 kmh 30.07 in1018.3 mb - 0.00 in0.0 mm 0.00 in0.0 mm
04:50 PM 12.3°F-10.9°C 6.2°F-14.3°C 76% 3.5 mph SW5.6 kmh SW 8.1 mph13.0 kmh 30.06 in1017.9 mb - 0.00 in0.0 mm 0.00 in0.0 mm
05:00 PM 12.5°F-10.8°C 6.3°F-14.3°C 76% 3.5 mph SW5.6 kmh SW 6.9 mph11.1 kmh 30.05 in1017.6 mb - 0.00 in0.0 mm 0.00 in0.0 mm
05:10 PM 12.6°F-10.8°C 6.2°F-14.3°C 75% Calm Calm 3.5 mph5.6 kmh 30.05 in1017.6 mb - 0.00 in0.0 mm 0.00 in0.0 mm
05:20 PM 12.7°F-10.7°C 6.0°F-14.4°C 74% 2.3 mph WSW3.7 kmh WSW 3.5 mph5.6 kmh 30.06 in1017.9 mb - 0.00 in0.0 mm 0.00 in0.0 mm
05:30 PM 12.9°F-10.6°C 6.2°F-14.3°C 74% 2.3 mph SW3.7 kmh SW 3.5 mph5.6 kmh 30.05 in1017.6 mb - 0.00 in0.0 mm 0.00 in0.0 mm
05:40 PM 13.0°F-10.6°C 6.0°F-14.4°C 73% 3.5 mph WSW5.6 kmh WSW 2.3 mph3.7 kmh 30.05 in1017.6 mb - 0.00 in0.0 mm 0.00 in0.0 mm
05:50 PM 13.2°F-10.4°C 6.5°F-14.2°C 74% 1.2 mph WSW1.9 kmh WSW 4.6 mph7.4 kmh 30.04 in1017.3 mb - 0.00 in0.0 mm 0.00 in0.0 mm
06:00 PM 13.3°F-10.4°C 6.6°F-14.1°C 74% 1.2 mph WSW1.9 kmh WSW 5.8 mph9.3 kmh 30.04 in1017.3 mb - 0.00 in0.0 mm 0.00 in0.0 mm
06:10 PM 13.4°F-10.3°C 6.6°F-14.1°C 74% 3.5 mph WSW5.6 kmh WSW 6.9 mph11.1 kmh 30.05 in1017.6 mb - 0.00 in0.0 mm 0.00 in0.0 mm
06:20 PM 13.5°F-10.3°C 7.0°F-13.9°C 75% 1.2 mph W1.9 kmh W 3.5 mph5.6 kmh 30.05 in1017.6 mb - 0.00 in0.0 mm 0.00 in0.0 mm
06:30 PM 13.6°F-10.2°C 7.1°F-13.8°C 75% Calm Calm 3.5 mph5.6 kmh 30.04 in1017.3 mb - 0.00 in0.0 mm 0.00 in0.0 mm
06:40 PM 13.7°F-10.2°C 7.2°F-13.8°C 75% 2.3 mph W3.7 kmh W 5.8 mph9.3 kmh 30.05 in1017.6 mb - 0.00 in0.0 mm 0.00 in0.0 mm
06:50 PM 13.9°F-10.1°C 7.2°F-13.8°C 74% 1.2 mph NW1.9 kmh NW 1.2 mph1.9 kmh 30.05 in1017.6 mb - 0.00 in0.0 mm 0.00 in0.0 mm
07:00 PM 14.1°F-9.9°C 7.3°F-13.7°C 74% 3.5 mph W5.6 kmh W 4.6 mph7.4 kmh 30.05 in1017.6 mb - 0.00 in0.0 mm 0.00 in0.0 mm
07:10 PM 14.3°F-9.8°C 7.5°F-13.6°C 74% 1.2 mph WSW1.9 kmh WSW 4.6 mph7.4 kmh 30.05 in1017.6 mb - 0.00 in0.0 mm 0.00 in0.0 mm
07:20 PM 14.3°F-9.8°C 7.2°F-13.8°C 73% Calm Calm -- 30.05 in1017.6 mb - 0.00 in0.0 mm 0.00 in0.0 mm
07:30 PM 14.3°F-9.8°C 7.2°F-13.8°C 73% 1.2 mph W1.9 kmh W 3.5 mph5.6 kmh 30.06 in1017.9 mb - 0.00 in0.0 mm 0.00 in0.0 mm
07:40 PM 14.3°F-9.8°C 7.2°F-13.8°C 73% Calm Calm 2.3 mph3.7 kmh 30.06 in1017.9 mb - 0.00 in0.0 mm 0.00 in0.0 mm
07:50 PM 14.3°F-9.8°C 6.9°F-13.9°C 72% 2.3 mph W3.7 kmh W 3.5 mph5.6 kmh 30.06 in1017.9 mb - 0.00 in0.0 mm 0.00 in0.0 mm
08:00 PM 14.2°F-9.9°C 6.8°F-14.0°C 72% Calm Calm 2.3 mph3.7 kmh 30.06 in1017.9 mb - 0.00 in0.0 mm 0.00 in0.0 mm
08:10 PM 14.0°F-10.0°C 6.6°F-14.1°C 72% Calm Calm 5.8 mph9.3 kmh 30.06 in1017.9 mb - 0.00 in0.0 mm 0.00 in0.0 mm
08:20 PM 14.0°F-10.0°C 6.3°F-14.3°C 71% Calm Calm 3.5 mph5.6 kmh 30.06 in1017.9 mb - 0.00 in0.0 mm 0.00 in0.0 mm
08:30 PM 13.9°F-10.1°C 5.6°F-14.7°C 69% 2.3 mph NW3.7 kmh NW 5.8 mph9.3 kmh 30.07 in1018.3 mb - 0.00 in0.0 mm 0.00 in0.0 mm
08:40 PM 13.9°F-10.1°C 5.0°F-15.0°C 67% 2.3 mph NW3.7 kmh NW 3.5 mph5.6 kmh 30.07 in1018.3 mb - 0.00 in0.0 mm 0.00 in0.0 mm
08:50 PM 13.7°F-10.2°C 4.1°F-15.5°C 65% 2.3 mph NW3.7 kmh NW 10.4 mph16.7 kmh 30.07 in1018.3 mb - 0.00 in0.0 mm 0.00 in0.0 mm
09:00 PM 13.5°F-10.3°C 3.9°F-15.6°C 65% 4.6 mph NNW7.4 kmh NNW 10.4 mph16.7 kmh 30.07 in1018.3 mb - 0.00 in0.0 mm 0.00 in0.0 mm
09:10 PM 13.5°F-10.3°C 4.2°F-15.4°C 66% 2.3 mph NW3.7 kmh NW 3.5 mph5.6 kmh 30.07 in1018.3 mb - 0.00 in0.0 mm 0.00 in0.0 mm
09:20 PM 13.4°F-10.3°C 3.8°F-15.7°C 65% 2.3 mph WNW3.7 kmh WNW 3.5 mph5.6 kmh 30.07 in1018.3 mb - 0.00 in0.0 mm 0.00 in0.0 mm
09:30 PM 13.2°F-10.4°C 3.7°F-15.7°C 65% 2.3 mph NNW3.7 kmh NNW 5.8 mph9.3 kmh 30.08 in1018.6 mb - 0.00 in0.0 mm 0.00 in0.0 mm
09:40 PM 13.2°F-10.4°C 3.2°F-16.0°C 64% 2.3 mph NW3.7 kmh NW 5.8 mph9.3 kmh 30.08 in1018.6 mb - 0.00 in0.0 mm 0.00 in0.0 mm
09:50 PM 13.0°F-10.6°C 3.1°F-16.1°C 64% 4.6 mph NW7.4 kmh NW 10.4 mph16.7 kmh 30.09 in1019.0 mb - 0.00 in0.0 mm 0.00 in0.0 mm
10:00 PM 12.9°F-10.6°C 3.3°F-15.9°C 65% 2.3 mph NW3.7 kmh NW 4.6 mph7.4 kmh 30.09 in1019.0 mb - 0.00 in0.0 mm 0.00 in0.0 mm
10:10 PM 12.8°F-10.7°C 3.2°F-16.0°C 65% 1.2 mph NW1.9 kmh NW 1.2 mph1.9 kmh 30.09 in1019.0 mb - 0.00 in0.0 mm 0.00 in0.0 mm
10:20 PM 12.7°F-10.7°C 3.1°F-16.1°C 65% 2.3 mph NNW3.7 kmh NNW 3.5 mph5.6 kmh 30.09 in1019.0 mb - 0.00 in0.0 mm 0.00 in0.0 mm
10:30 PM 12.6°F-10.8°C 3.4°F-15.9°C 66% 3.5 mph NW5.6 kmh NW 3.5 mph5.6 kmh 30.09 in1019.0 mb - 0.00 in0.0 mm 0.00 in0.0 mm
10:40 PM 12.4°F-10.9°C 3.2°F-16.0°C 66% Calm Calm -- 30.08 in1018.6 mb - 0.00 in0.0 mm 0.00 in0.0 mm
10:50 PM 12.3°F-10.9°C 3.1°F-16.1°C 66% 2.3 mph NW3.7 kmh NW 3.5 mph5.6 kmh 30.09 in1019.0 mb - 0.00 in0.0 mm 0.00 in0.0 mm
11:00 PM 12.1°F-11.1°C 3.2°F-16.0°C 67% 4.6 mph NW7.4 kmh NW 11.5 mph18.5 kmh 30.09 in1019.0 mb - 0.00 in0.0 mm 0.00 in0.0 mm
11:10 PM 11.8°F-11.2°C 2.9°F-16.2°C 67% Calm Calm 3.5 mph5.6 kmh 30.09 in1019.0 mb - 0.00 in0.0 mm 0.00 in0.0 mm
11:20 PM 11.4°F-11.4°C 2.9°F-16.2°C 68% 2.3 mph NW3.7 kmh NW 10.4 mph16.7 kmh 30.10 in1019.3 mb - 0.00 in0.0 mm 0.00 in0.0 mm
11:30 PM 11.1°F-11.6°C 2.6°F-16.3°C 68% 3.5 mph NW5.6 kmh NW 6.9 mph11.1 kmh 30.12 in1020.0 mb - 0.00 in0.0 mm 0.00 in0.0 mm
11:40 PM 10.9°F-11.7°C 2.1°F-16.6°C 67% 2.3 mph NNW3.7 kmh NNW 4.6 mph7.4 kmh 30.13 in1020.3 mb - 0.00 in0.0 mm 0.00 in0.0 mm
11:50 PM 10.6°F-11.9°C 1.1°F-17.2°C 65% 4.6 mph NW7.4 kmh NW 9.2 mph14.8 kmh 30.14 in1020.7 mb - 0.00 in0.0 mm 0.00 in0.0 mm